createdAt,value
2022-08-26T00:00:19.787Z,5.75
2022-08-26T00:02:24.526Z,6.15
2022-08-26T00:04:29.394Z,4.60
2022-08-26T00:06:34.895Z,4.93
2022-08-26T00:08:40.841Z,5.00
2022-08-26T00:10:46.179Z,4.38
2022-08-26T00:12:51.170Z,4.10
2022-08-26T00:14:55.532Z,4.90
2022-08-26T00:17:00.636Z,5.68
2022-08-26T00:19:05.162Z,5.20
2022-08-26T00:21:11.186Z,4.45
2022-08-26T00:23:16.221Z,4.85
2022-08-26T00:25:22.448Z,4.63
2022-08-26T00:27:26.835Z,5.32
2022-08-26T00:29:35.553Z,5.13
2022-08-26T00:31:42.300Z,4.75
2022-08-26T00:33:46.814Z,4.28
2022-08-26T00:35:51.605Z,4.97
2022-08-26T00:37:56.197Z,5.30
2022-08-26T00:40:00.993Z,5.18
2022-08-26T00:42:11.338Z,4.63
2022-08-26T00:44:15.617Z,4.20
2022-08-26T00:46:23.456Z,4.75
2022-08-26T00:48:31.932Z,4.70
2022-08-26T00:50:39.635Z,4.25
2022-08-26T00:52:45.078Z,4.90
2022-08-26T00:54:58.230Z,4.28
2022-08-26T00:57:15.988Z,4.78
2022-08-26T00:59:23.094Z,4.40
2022-08-26T01:01:28.462Z,4.80
2022-08-26T01:03:35.937Z,4.22
2022-08-26T01:05:40.820Z,5.03
2022-08-26T01:07:45.336Z,4.57
2022-08-26T01:09:50.267Z,5.35
2022-08-26T01:11:58.851Z,5.03
2022-08-26T01:14:05.455Z,4.78
2022-08-26T01:16:14.266Z,4.80
2022-08-26T01:18:19.863Z,4.13
2022-08-26T01:20:32.738Z,4.90
2022-08-26T01:22:47.480Z,4.55
2022-08-26T01:24:52.688Z,4.78
2022-08-26T01:26:59.828Z,4.50
2022-08-26T01:29:06.247Z,4.30
2022-08-26T01:31:14.916Z,4.97
2022-08-26T01:33:24.022Z,5.47
2022-08-26T01:35:29.465Z,5.28
2022-08-26T01:37:38.908Z,4.45
2022-08-26T01:39:48.701Z,4.72
2022-08-26T01:41:57.001Z,5.45
2022-08-26T01:44:02.500Z,4.40
2022-08-26T01:46:07.909Z,4.75
2022-08-26T01:48:21.173Z,4.53
2022-08-26T01:50:30.196Z,3.88
2022-08-26T01:52:39.284Z,4.50
2022-08-26T01:54:46.361Z,4.03
2022-08-26T01:56:56.093Z,4.50
2022-08-26T01:59:04.699Z,4.45
2022-08-26T02:01:09.764Z,4.68
2022-08-26T02:03:18.382Z,4.55
2022-08-26T02:05:23.366Z,4.55
2022-08-26T02:07:28.794Z,4.50
2022-08-26T02:09:33.348Z,5.63
2022-08-26T02:11:47.881Z,4.13
2022-08-26T02:13:57.355Z,4.63
2022-08-26T02:16:04.028Z,4.18
2022-08-26T02:18:14.006Z,4.00
2022-08-26T02:20:20.802Z,3.95
2022-08-26T02:22:25.689Z,4.47
2022-08-26T02:24:32.392Z,5.63
2022-08-26T02:26:36.895Z,4.68
2022-08-26T02:28:50.901Z,3.80
2022-08-26T02:30:55.711Z,4.47
2022-08-26T02:33:01.734Z,4.38
2022-08-26T02:35:07.503Z,4.30
2022-08-26T02:37:13.239Z,5.10
2022-08-26T02:39:21.958Z,4.47
2022-08-26T02:41:26.741Z,4.45
2022-08-26T02:43:32.886Z,5.05
2022-08-26T02:45:40.251Z,6.22
2022-08-26T02:47:45.009Z,4.82
2022-08-26T02:49:50.847Z,4.38
2022-08-26T02:51:55.496Z,4.40
2022-08-26T02:54:00.472Z,4.60
2022-08-26T02:56:08.473Z,4.30
2022-08-26T02:58:12.593Z,4.45
2022-08-26T03:00:17.802Z,4.65
2022-08-26T03:02:24.069Z,4.20
2022-08-26T03:04:29.029Z,3.90
2022-08-26T03:06:38.524Z,4.35
2022-08-26T03:08:45.224Z,4.75
2022-08-26T03:10:49.848Z,4.40
2022-08-26T03:12:54.175Z,4.18
2022-08-26T03:14:58.886Z,4.45
2022-08-26T03:17:03.045Z,4.25
2022-08-26T03:19:10.682Z,4.68
2022-08-26T03:21:17.852Z,4.60
2022-08-26T03:23:22.633Z,4.80
2022-08-26T03:25:27.895Z,4.50
2022-08-26T03:27:33.201Z,4.40
2022-08-26T03:29:54.931Z,4.20
2022-08-26T03:32:00.838Z,5.35
2022-08-26T03:34:06.085Z,4.10
2022-08-26T03:36:12.420Z,4.63
2022-08-26T03:38:17.466Z,5.03
2022-08-26T03:40:22.600Z,4.47
2022-08-26T03:42:27.191Z,5.10
2022-08-26T03:44:32.446Z,4.95
2022-08-26T03:46:37.123Z,5.00
2022-08-26T03:48:42.303Z,4.70
2022-08-26T03:50:48.830Z,6.10
2022-08-26T03:52:57.404Z,4.45
2022-08-26T03:55:01.760Z,4.57
2022-08-26T03:57:09.294Z,4.60
2022-08-26T03:59:13.972Z,5.03
2022-08-26T04:01:19.041Z,4.30
2022-08-26T04:03:37.156Z,4.53
2022-08-26T04:05:41.885Z,5.07
2022-08-26T04:07:46.505Z,4.18
2022-08-26T04:09:56.119Z,4.45
2022-08-26T04:12:00.420Z,4.70
2022-08-26T04:14:07.837Z,5.50
2022-08-26T04:16:12.499Z,4.63
2022-08-26T04:18:17.265Z,4.53
2022-08-26T04:20:28.670Z,4.57
2022-08-26T04:22:32.963Z,4.88
2022-08-26T04:24:39.588Z,4.70
2022-08-26T04:26:45.470Z,4.05
2022-08-26T04:28:50.650Z,4.95
2022-08-26T04:30:55.149Z,4.78
2022-08-26T04:32:59.697Z,4.28
2022-08-26T04:35:04.165Z,4.28
2022-08-26T04:37:09.908Z,4.25
2022-08-26T04:39:16.870Z,4.90
2022-08-26T04:41:23.812Z,4.70
2022-08-26T04:43:31.426Z,5.18
2022-08-26T04:45:37.656Z,4.22
2022-08-26T04:47:43.274Z,5.05
2022-08-26T04:49:47.621Z,4.50
2022-08-26T04:51:52.871Z,4.00
2022-08-26T04:53:57.548Z,4.18
2022-08-26T04:56:01.861Z,4.25
2022-08-26T04:58:10.200Z,4.07
2022-08-26T05:00:16.900Z,4.53
2022-08-26T05:02:21.306Z,4.32
2022-08-26T05:04:25.577Z,4.22
2022-08-26T05:06:30.123Z,4.47
2022-08-26T05:08:41.195Z,4.43
2022-08-26T05:10:48.088Z,4.97
2022-08-26T05:12:52.270Z,5.32
2022-08-26T05:14:57.908Z,5.22
2022-08-26T05:17:03.895Z,4.80
2022-08-26T05:19:09.153Z,4.45
2022-08-26T05:21:20.114Z,3.60
2022-08-26T05:23:25.343Z,4.38
2022-08-26T05:25:30.053Z,4.65
2022-08-26T05:27:34.143Z,4.45
2022-08-26T05:29:38.346Z,5.10
2022-08-26T05:31:43.117Z,5.03
2022-08-26T05:33:49.071Z,5.30
2022-08-26T05:35:54.520Z,5.72
2022-08-26T05:38:16.446Z,4.95
2022-08-26T05:40:21.140Z,4.35
2022-08-26T05:42:25.388Z,5.05
2022-08-26T05:44:29.620Z,5.38
2022-08-26T05:46:53.737Z,5.03
2022-08-26T05:49:00.234Z,5.57
2022-08-26T05:51:06.586Z,4.93
2022-08-26T05:53:12.883Z,5.65
2022-08-26T05:55:17.627Z,4.45
2022-08-26T05:57:23.194Z,5.40
2022-08-26T05:59:28.163Z,4.50
2022-08-26T06:01:35.908Z,5.25
2022-08-26T06:03:44.822Z,4.82
2022-08-26T06:05:51.410Z,4.60
2022-08-26T06:08:14.789Z,4.40
2022-08-26T06:10:32.015Z,4.97
2022-08-26T06:12:37.533Z,5.00
2022-08-26T06:14:41.738Z,4.10
2022-08-26T06:16:46.286Z,5.35
2022-08-26T06:18:51.734Z,4.75
2022-08-26T06:20:58.354Z,4.45
2022-08-26T06:23:20.409Z,4.43
2022-08-26T06:25:41.471Z,4.35
2022-08-26T06:27:48.950Z,4.85
2022-08-26T06:29:53.693Z,4.00
2022-08-26T06:31:58.804Z,4.70
2022-08-26T06:34:07.249Z,4.93
2022-08-26T06:36:20.593Z,5.35
2022-08-26T06:38:25.198Z,4.43
2022-08-26T06:40:29.547Z,4.15
2022-08-26T06:42:34.202Z,4.38
2022-08-26T06:44:38.402Z,4.38
2022-08-26T06:46:45.744Z,3.50
2022-08-26T06:48:50.179Z,5.00
2022-08-26T06:51:03.724Z,4.40
2022-08-26T06:53:09.828Z,4.13
2022-08-26T06:55:14.180Z,4.75
2022-08-26T06:57:18.377Z,5.40
2022-08-26T06:59:22.599Z,4.65
2022-08-26T07:01:29.118Z,4.95
2022-08-26T07:03:35.041Z,4.28
2022-08-26T07:05:44.090Z,4.50
2022-08-26T07:07:49.635Z,3.95
2022-08-26T07:09:56.551Z,4.07
2022-08-26T07:12:01.987Z,3.95
2022-08-26T07:14:07.953Z,4.00
2022-08-26T07:16:14.299Z,4.18
2022-08-26T07:18:18.678Z,3.60
2022-08-26T07:20:26.527Z,3.90
2022-08-26T07:22:31.568Z,4.32
2022-08-26T07:24:38.292Z,4.43
2022-08-26T07:26:43.936Z,4.43
2022-08-26T07:28:50.670Z,4.63
2022-08-26T07:30:57.722Z,4.30
2022-08-26T07:33:03.383Z,4.68
2022-08-26T07:35:09.434Z,3.92
2022-08-26T07:37:13.704Z,4.18
2022-08-26T07:39:18.315Z,3.90
2022-08-26T07:41:24.619Z,4.13
2022-08-26T07:43:30.971Z,3.90
2022-08-26T07:45:35.338Z,4.38
2022-08-26T07:47:39.838Z,4.13
2022-08-26T07:49:44.874Z,4.40
2022-08-26T07:51:49.305Z,3.95
2022-08-26T07:53:54.286Z,3.30
2022-08-26T07:55:59.162Z,4.13
2022-08-26T07:58:03.767Z,3.40
2022-08-26T08:00:16.170Z,4.05
2022-08-26T08:02:20.438Z,4.05
2022-08-26T08:04:26.771Z,3.83
2022-08-26T08:06:31.142Z,3.60
2022-08-26T08:08:36.545Z,3.45
2022-08-26T08:10:41.518Z,3.50
2022-08-26T08:12:53.799Z,3.58
2022-08-26T08:14:58.310Z,4.05
2022-08-26T08:17:05.215Z,4.50
2022-08-26T08:19:09.619Z,4.85
2022-08-26T08:21:23.967Z,3.63
2022-08-26T08:23:28.633Z,3.83
2022-08-26T08:25:34.493Z,4.45
2022-08-26T08:27:41.284Z,3.67
2022-08-26T08:29:46.631Z,3.47
2022-08-26T08:31:56.983Z,4.28
2022-08-26T08:34:03.801Z,4.47
2022-08-26T08:36:09.368Z,4.22
2022-08-26T08:38:13.573Z,4.40
2022-08-26T08:40:18.639Z,4.18
2022-08-26T08:42:39.274Z,3.80
2022-08-26T08:44:52.344Z,3.97
2022-08-26T08:47:00.333Z,3.53
2022-08-26T08:49:06.157Z,3.92
2022-08-26T08:51:20.071Z,4.10
2022-08-26T08:53:31.833Z,4.68
2022-08-26T08:55:46.229Z,4.35
2022-08-26T08:58:03.542Z,3.72
2022-08-26T09:00:13.868Z,4.78
2022-08-26T09:02:27.279Z,4.40
2022-08-26T09:04:57.723Z,4.25
2022-08-26T09:07:05.663Z,3.90
2022-08-26T09:09:18.905Z,3.50
2022-08-26T09:11:23.197Z,3.55
2022-08-26T09:13:29.010Z,3.83
2022-08-26T09:15:47.777Z,3.87
2022-08-26T09:18:01.566Z,4.00
2022-08-26T09:20:20.644Z,4.20
2022-08-26T09:22:33.336Z,4.28
2022-08-26T09:24:41.520Z,4.05
2022-08-26T09:26:48.636Z,3.90
2022-08-26T09:29:01.187Z,4.25
2022-08-26T09:31:13.690Z,4.20
2022-08-26T09:33:19.591Z,4.70
2022-08-26T09:35:30.986Z,3.80
2022-08-26T09:37:39.670Z,3.97
2022-08-26T09:39:43.853Z,4.22
2022-08-26T09:42:04.473Z,4.75
2022-08-26T09:44:18.391Z,4.20
2022-08-26T09:46:29.190Z,4.32
2022-08-26T09:48:37.680Z,3.88
2022-08-26T09:50:57.116Z,4.38
2022-08-26T09:53:13.069Z,4.20
2022-08-26T09:55:23.665Z,3.83
2022-08-26T09:57:30.350Z,3.60
2022-08-26T09:59:36.380Z,4.07
2022-08-26T10:01:43.166Z,4.20
2022-08-26T10:03:47.696Z,4.22
2022-08-26T10:06:00.227Z,4.65
2022-08-26T10:08:22.996Z,4.28
2022-08-26T10:10:32.791Z,4.00
2022-08-26T10:12:41.393Z,4.05
2022-08-26T10:14:50.500Z,4.35
2022-08-26T10:19:08.720Z,3.95
2022-08-26T10:21:21.296Z,4.38
2022-08-26T10:23:28.611Z,4.75
2022-08-26T10:25:39.258Z,5.60
2022-08-26T10:27:53.484Z,5.32
2022-08-26T10:30:05.167Z,4.93
2022-08-26T10:32:14.067Z,4.63
2022-08-26T10:34:21.215Z,4.75
2022-08-26T10:37:10.639Z,4.88
2022-08-26T10:39:15.963Z,5.20
2022-08-26T10:41:24.581Z,5.00
2022-08-26T10:43:31.930Z,5.55
2022-08-26T10:45:40.197Z,5.30
2022-08-26T10:47:50.489Z,5.05
2022-08-26T10:50:00.003Z,5.22
2022-08-26T10:52:17.048Z,5.40
2022-08-26T10:54:28.299Z,4.88
2022-08-26T10:56:44.770Z,5.10
2022-08-26T10:58:59.975Z,6.13
2022-08-26T11:01:29.153Z,4.72
2022-08-26T11:03:42.009Z,5.00
2022-08-26T11:05:46.165Z,5.22
2022-08-26T11:07:54.935Z,5.15
2022-08-26T11:10:00.460Z,6.40
2022-08-26T11:12:10.023Z,5.47
2022-08-26T11:14:40.615Z,6.22
2022-08-26T11:16:58.693Z,4.85
2022-08-26T11:19:03.210Z,7.03
2022-08-26T11:21:52.580Z,5.80
2022-08-26T11:26:35.672Z,6.70
2022-08-26T11:28:44.174Z,6.18
2022-08-26T11:30:56.925Z,5.05
2022-08-26T11:33:02.081Z,5.60
2022-08-26T11:35:09.396Z,5.60
2022-08-26T11:37:16.593Z,6.13
2022-08-26T11:39:29.819Z,5.90
2022-08-26T11:41:35.612Z,5.85
2022-08-26T11:43:42.677Z,5.90
2022-08-26T11:45:49.551Z,5.43
2022-08-26T11:47:54.948Z,5.75
2022-08-26T11:50:11.364Z,5.30
2022-08-26T11:52:20.875Z,5.72
2022-08-26T11:54:35.190Z,5.20
2022-08-26T11:56:42.874Z,5.43
2022-08-26T11:58:49.153Z,4.68
2022-08-26T12:00:57.965Z,4.93
2022-08-26T12:05:10.848Z,5.20
2022-08-26T12:07:16.637Z,4.72
2022-08-26T12:09:24.863Z,5.72
2022-08-26T12:11:32.088Z,5.20
2022-08-26T12:13:39.075Z,5.50
2022-08-26T12:15:52.801Z,5.35
2022-08-26T12:18:18.267Z,5.80
2022-08-26T12:20:48.355Z,6.32
2022-08-26T12:22:52.625Z,8.68
2022-08-26T12:24:59.834Z,17.00
2022-08-26T12:27:18.019Z,8.82
2022-08-26T12:29:28.211Z,5.75
2022-08-26T12:31:39.484Z,4.97
2022-08-26T12:33:44.254Z,5.97
2022-08-26T12:35:51.443Z,5.20
2022-08-26T12:37:58.894Z,5.88
2022-08-26T12:40:35.540Z,4.82
2022-08-26T12:42:43.823Z,5.90
2022-08-26T12:44:53.805Z,5.50
2022-08-26T12:47:04.367Z,5.03
2022-08-26T12:49:09.404Z,4.75
2022-08-26T12:51:23.214Z,5.65
2022-08-26T12:53:29.458Z,5.10
2022-08-26T12:55:40.461Z,5.53
2022-08-26T12:57:47.476Z,5.20
2022-08-26T12:59:51.664Z,4.85
2022-08-26T13:01:56.060Z,4.60
2022-08-26T13:04:00.419Z,5.60
2022-08-26T13:06:25.833Z,5.13
2022-08-26T13:08:31.420Z,4.88
2022-08-26T13:10:36.798Z,5.15
2022-08-26T13:12:41.426Z,4.68
2022-08-26T13:14:47.167Z,5.40
2022-08-26T13:16:51.730Z,5.15
2022-08-26T13:18:58.870Z,5.15
2022-08-26T13:21:10.257Z,5.80
2022-08-26T13:23:15.309Z,4.95
2022-08-26T13:25:19.850Z,5.25
2022-08-26T13:27:26.281Z,5.47
2022-08-26T13:29:30.810Z,5.03
2022-08-26T13:31:39.789Z,4.70
2022-08-26T13:33:44.581Z,5.82
2022-08-26T13:35:49.439Z,5.45
2022-08-26T13:37:53.760Z,5.80
2022-08-26T13:39:58.328Z,5.68
2022-08-26T13:42:02.448Z,5.75
2022-08-26T13:44:06.673Z,5.22
2022-08-26T13:46:10.969Z,5.93
2022-08-26T13:48:21.536Z,6.10
2022-08-26T13:50:27.549Z,6.20
2022-08-26T13:52:31.753Z,4.88
2022-08-26T13:54:36.257Z,5.13
2022-08-26T13:56:40.484Z,6.28
2022-08-26T13:58:44.595Z,5.07
2022-08-26T14:00:50.353Z,5.55
2022-08-26T14:02:54.612Z,5.78
2022-08-26T14:05:00.206Z,5.65
2022-08-26T14:07:04.565Z,6.28
2022-08-26T14:09:08.773Z,5.60
2022-08-26T14:11:16.034Z,6.15
2022-08-26T14:13:20.484Z,5.00
2022-08-26T14:15:24.720Z,6.15
2022-08-26T14:17:32.863Z,6.28
2022-08-26T14:19:37.771Z,4.95
2022-08-26T14:21:43.464Z,5.53
2022-08-26T14:23:47.981Z,5.68
2022-08-26T14:25:52.222Z,5.53
2022-08-26T14:27:56.863Z,5.47
2022-08-26T14:30:01.005Z,5.03
2022-08-26T14:32:11.548Z,5.65
2022-08-26T14:34:15.931Z,6.10
2022-08-26T14:36:29.165Z,5.60
2022-08-26T14:38:34.778Z,4.80
2022-08-26T14:40:40.256Z,4.95
2022-08-26T14:42:49.150Z,6.03
2022-08-26T14:45:00.179Z,4.65
2022-08-26T14:47:06.725Z,5.53
2022-08-26T14:49:11.232Z,5.43
2022-08-26T14:51:15.396Z,5.57
2022-08-26T14:53:48.746Z,5.93
2022-08-26T14:55:54.407Z,5.53
2022-08-26T14:57:58.589Z,4.97
2022-08-26T15:00:02.722Z,5.35
2022-08-26T15:02:08.172Z,5.18
2022-08-26T15:04:12.759Z,5.75
2022-08-26T15:06:17.747Z,5.30
2022-08-26T15:08:21.920Z,6.28
2022-08-26T15:10:26.126Z,5.47
2022-08-26T15:12:31.676Z,5.55
2022-08-26T15:14:35.825Z,5.47
2022-08-26T15:16:39.931Z,5.85
2022-08-26T15:18:44.151Z,5.53
2022-08-26T15:20:48.400Z,4.90
2022-08-26T15:22:52.467Z,5.75
2022-08-26T15:24:58.701Z,5.95
2022-08-26T15:27:02.817Z,6.00
2022-08-26T15:29:08.669Z,5.90
2022-08-26T15:31:13.028Z,6.10
2022-08-26T15:33:17.183Z,7.30
2022-08-26T15:35:21.323Z,6.55
2022-08-26T15:37:25.560Z,7.43
2022-08-26T15:39:30.028Z,6.15
2022-08-26T15:41:35.283Z,6.47
2022-08-26T15:43:39.836Z,5.50
2022-08-26T15:45:45.311Z,6.55
2022-08-26T15:48:01.189Z,8.48
2022-08-26T15:50:06.744Z,7.53
2022-08-26T15:52:10.962Z,7.30
2022-08-26T15:54:16.720Z,6.78
2022-08-26T15:56:21.022Z,5.65
2022-08-26T15:58:27.212Z,10.40
2022-08-26T16:00:31.398Z,38.67
2022-08-26T16:02:36.918Z,18.95
2022-08-26T16:04:41.919Z,20.15
2022-08-26T16:06:50.395Z,9.80
2022-08-26T16:08:55.447Z,14.27
2022-08-26T16:11:03.503Z,18.92
2022-08-26T16:13:10.350Z,11.25
2022-08-26T16:15:17.139Z,10.48
2022-08-26T16:17:21.289Z,14.98
2022-08-26T16:19:26.871Z,12.63
2022-08-26T16:21:30.939Z,14.85
2022-08-26T16:23:36.123Z,9.10
2022-08-26T16:25:40.243Z,7.03
2022-08-26T16:27:44.599Z,7.18
2022-08-26T16:29:48.825Z,8.27
2022-08-26T16:31:53.872Z,7.40
2022-08-26T16:33:58.071Z,6.75
2022-08-26T16:36:04.068Z,5.47
2022-08-26T16:38:09.001Z,7.15
2022-08-26T16:40:13.650Z,6.60
2022-08-26T16:42:17.896Z,5.93
2022-08-26T16:44:22.403Z,6.57
2022-08-26T16:46:27.223Z,6.93
2022-08-26T16:48:31.434Z,6.85
2022-08-26T16:50:35.593Z,6.85
2022-08-26T16:52:41.815Z,6.45
2022-08-26T16:54:47.100Z,7.10
2022-08-26T16:56:51.465Z,6.57
2022-08-26T16:58:55.838Z,6.72
2022-08-26T17:01:00.111Z,6.22
2022-08-26T17:03:04.765Z,7.53
2022-08-26T17:05:10.353Z,7.32
2022-08-26T17:07:14.674Z,6.75
2022-08-26T17:09:20.272Z,7.05
2022-08-26T17:11:24.505Z,7.65
2022-08-26T17:13:35.474Z,6.55
2022-08-26T17:15:40.740Z,7.85
2022-08-26T17:17:45.272Z,7.63
2022-08-26T17:19:49.419Z,8.20
2022-08-26T17:21:53.606Z,7.55
2022-08-26T17:23:57.870Z,8.43
2022-08-26T17:26:03.590Z,7.38
2022-08-26T17:28:13.236Z,7.57
2022-08-26T17:30:18.425Z,8.00
2022-08-26T17:32:22.859Z,7.10
2022-08-26T17:34:27.141Z,6.35
2022-08-26T17:36:31.418Z,7.18
2022-08-26T17:38:35.882Z,7.88
2022-08-26T17:40:40.954Z,7.68
2022-08-26T17:42:47.020Z,8.45
2022-08-26T17:44:51.336Z,7.75
2022-08-26T17:46:55.625Z,8.00
2022-08-26T17:48:59.857Z,7.60
2022-08-26T17:51:08.161Z,9.63
2022-08-26T17:53:18.898Z,8.75
2022-08-26T17:55:23.685Z,7.60
2022-08-26T17:57:28.419Z,8.40
2022-08-26T17:59:34.936Z,8.82
2022-08-26T18:01:39.969Z,8.50
2022-08-26T18:03:44.331Z,8.55
2022-08-26T18:05:49.823Z,8.38
2022-08-26T18:07:54.017Z,8.93
2022-08-26T18:09:58.546Z,8.10
2022-08-26T18:12:02.887Z,7.72
2022-08-26T18:14:07.249Z,7.70
2022-08-26T18:16:13.218Z,8.30
2022-08-26T18:18:17.473Z,8.85
2022-08-26T18:20:22.296Z,8.82
2022-08-26T18:22:26.671Z,8.93
2022-08-26T18:24:32.285Z,8.82
2022-08-26T18:26:38.423Z,7.82
2022-08-26T18:28:42.585Z,8.48
2022-08-26T18:30:47.482Z,9.00
2022-08-26T18:32:53.973Z,9.45
2022-08-26T18:34:58.182Z,9.45
2022-08-26T18:37:02.474Z,9.20
2022-08-26T18:39:08.087Z,9.65
2022-08-26T18:41:12.410Z,8.30
2022-08-26T18:43:17.070Z,8.25
2022-08-26T18:45:21.286Z,9.00
2022-08-26T18:47:25.534Z,9.43
2022-08-26T18:49:31.173Z,8.95
2022-08-26T18:51:36.840Z,8.75
2022-08-26T18:53:42.060Z,8.43
2022-08-26T18:55:46.498Z,9.18
2022-08-26T18:57:50.814Z,10.05
2022-08-26T18:59:55.603Z,9.90
2022-08-26T19:02:00.173Z,8.80
2022-08-26T19:04:07.099Z,8.38
2022-08-26T19:06:16.866Z,8.70
2022-08-26T19:08:22.367Z,9.65
2022-08-26T19:10:30.214Z,9.98
2022-08-26T19:12:35.518Z,9.15
2022-08-26T19:14:39.790Z,9.48
2022-08-26T19:16:47.306Z,9.80
2022-08-26T19:18:53.284Z,8.18
2022-08-26T19:20:57.838Z,8.68
2022-08-26T19:23:10.582Z,8.68
2022-08-26T19:25:25.789Z,8.48
2022-08-26T19:27:32.670Z,10.18
2022-08-26T19:29:40.145Z,7.97
2022-08-26T19:31:46.422Z,8.98
2022-08-26T19:33:52.378Z,8.40
2022-08-26T19:35:57.064Z,9.07
2022-08-26T19:38:06.373Z,10.25
2022-08-26T19:40:11.837Z,9.07
2022-08-26T19:42:16.595Z,9.32
2022-08-26T19:44:42.095Z,9.48
2022-08-26T19:46:49.064Z,9.25
2022-08-26T19:48:55.741Z,7.97
2022-08-26T19:51:00.263Z,8.05
2022-08-26T19:53:05.998Z,9.25
2022-08-26T19:55:12.666Z,9.00
2022-08-26T19:57:17.150Z,9.90
2022-08-26T19:59:21.781Z,8.32
2022-08-26T20:01:26.518Z,7.50
2022-08-26T20:03:30.818Z,9.77
2022-08-26T20:05:35.165Z,9.15
2022-08-26T20:07:40.129Z,7.80
2022-08-26T20:09:45.942Z,8.73
2022-08-26T20:11:52.074Z,9.15
2022-08-26T20:14:00.904Z,8.88
2022-08-26T20:16:05.897Z,8.50
2022-08-26T20:18:30.394Z,8.02
2022-08-26T20:20:51.723Z,8.68
2022-08-26T20:22:56.063Z,9.40
2022-08-26T20:25:01.722Z,10.18
2022-08-26T20:27:08.285Z,8.70
2022-08-26T20:29:14.452Z,8.13
2022-08-26T20:31:21.491Z,8.40
2022-08-26T20:33:25.842Z,7.75
2022-08-26T20:35:30.514Z,8.52
2022-08-26T20:37:35.767Z,9.63
2022-08-26T20:39:41.842Z,9.02
2022-08-26T20:41:55.410Z,9.15
2022-08-26T20:43:59.837Z,8.70
2022-08-26T20:46:08.341Z,8.65
2022-08-26T20:48:22.105Z,8.80
2022-08-26T20:50:26.530Z,8.10
2022-08-26T20:52:33.712Z,8.88
2022-08-26T20:54:38.365Z,9.52
2022-08-26T20:56:42.683Z,8.15
2022-08-26T20:58:48.365Z,9.15
2022-08-26T21:00:52.610Z,8.70
2022-08-26T21:02:57.520Z,7.70
2022-08-26T21:05:01.863Z,7.72
2022-08-26T21:07:07.259Z,9.18
2022-08-26T21:09:13.817Z,7.80
2022-08-26T21:11:20.189Z,8.43
2022-08-26T21:13:24.438Z,8.35
2022-08-26T21:15:30.071Z,8.40
2022-08-26T21:17:35.658Z,7.65
2022-08-26T21:19:39.933Z,7.88
2022-08-26T21:21:44.540Z,8.00
2022-08-26T21:23:48.982Z,7.85
2022-08-26T21:25:53.332Z,8.90
2022-08-26T21:27:57.662Z,8.60
2022-08-26T21:30:01.924Z,9.07
2022-08-26T21:32:10.442Z,7.97
2022-08-26T21:34:20.600Z,8.00
2022-08-26T21:36:25.725Z,7.90
2022-08-26T21:38:31.229Z,8.00
2022-08-26T21:40:38.569Z,9.10
2022-08-26T21:42:51.475Z,9.45
2022-08-26T21:44:56.083Z,8.82
2022-08-26T21:47:00.253Z,8.55
2022-08-26T21:49:08.873Z,9.02
2022-08-26T21:51:14.992Z,8.45
2022-08-26T21:53:19.533Z,8.75
2022-08-26T21:55:23.764Z,8.18
2022-08-26T21:57:29.178Z,7.25
2022-08-26T21:59:33.695Z,8.23
2022-08-26T22:01:38.735Z,8.82
2022-08-26T22:03:47.445Z,7.75
2022-08-26T22:05:53.842Z,9.95
2022-08-26T22:07:58.060Z,7.95
2022-08-26T22:10:02.463Z,7.70
2022-08-26T22:12:10.202Z,9.63
2022-08-26T22:14:15.174Z,8.52
2022-08-26T22:16:19.374Z,9.25
2022-08-26T22:18:23.652Z,7.93
2022-08-26T22:20:27.877Z,8.32
2022-08-26T22:22:33.523Z,10.15
2022-08-26T22:24:37.972Z,9.07
2022-08-26T22:26:42.230Z,9.57
2022-08-26T22:28:46.685Z,7.72
2022-08-26T22:30:51.634Z,8.45
2022-08-26T22:32:55.924Z,8.55
2022-08-26T22:35:00.199Z,10.15
2022-08-26T22:37:04.629Z,8.65
2022-08-26T22:39:10.648Z,8.45
2022-08-26T22:41:15.446Z,8.90
2022-08-26T22:43:20.491Z,9.25
2022-08-26T22:45:24.744Z,8.18
2022-08-26T22:47:29.195Z,8.60
2022-08-26T22:49:33.367Z,8.43
2022-08-26T22:51:37.795Z,9.00
2022-08-26T22:53:42.313Z,9.00
2022-08-26T22:55:48.361Z,8.57
2022-08-26T22:57:52.664Z,9.07
2022-08-26T22:59:56.983Z,8.52
2022-08-26T23:02:01.100Z,7.55
2022-08-26T23:04:06.585Z,7.63
2022-08-26T23:06:12.029Z,8.02
2022-08-26T23:08:16.606Z,8.00
2022-08-26T23:10:20.986Z,8.73
2022-08-26T23:12:27.695Z,8.82
2022-08-26T23:14:33.616Z,7.70
2022-08-26T23:16:39.596Z,7.72
2022-08-26T23:18:43.999Z,8.25
2022-08-26T23:20:48.323Z,8.40
2022-08-26T23:22:53.495Z,8.77
2022-08-26T23:24:57.811Z,8.27
2022-08-26T23:27:03.971Z,8.82
2022-08-26T23:29:11.089Z,9.68
2022-08-26T23:31:16.505Z,8.25
2022-08-26T23:33:20.812Z,7.65
2022-08-26T23:35:24.949Z,8.38
2022-08-26T23:37:34.049Z,7.47
2022-08-26T23:39:40.091Z,8.45
2022-08-26T23:41:44.468Z,9.52
2022-08-26T23:43:49.040Z,7.97
2022-08-26T23:45:54.730Z,8.45
2022-08-26T23:47:59.201Z,7.95
2022-08-26T23:50:03.587Z,9.05
2022-08-26T23:52:25.914Z,9.15
2022-08-26T23:54:31.656Z,7.88
2022-08-26T23:56:35.889Z,8.15
2022-08-26T23:58:40.277Z,9.02
